| time (UTC) | temp F | wind direction | speed MPH | gust MPH | rain 1hr in | rain 24hr in | rain mn in | humidity % | barometer mb |
| 20260503190524 | 76 | 314 | 4.0 | 9.0 | 0.00 | 0.00 | 0.00 | 55 | 1010.6 |
| 20260503190045 | 76 | 25 | 4.0 | 8.0 | 0.00 | 0.00 | 0.00 | 53 | 1010.6 |
| 20260503185524 | 76 | 56 | 3.0 | 6.0 | 0.00 | 0.00 | 0.00 | 54 | 1010.7 |
| 20260503185027 | 76 | 10 | 1.0 | 7.0 | 0.00 | 0.00 | 0.00 | 55 | 1010.9 |
| 20260503184548 | 76 | 311 | 3.0 | 7.0 | 0.00 | 0.00 | 0.00 | 55 | 1010.8 |
| 20260503184024 | 75 | 42 | 1.0 | 6.0 | 0.00 | 0.00 | 0.00 | 57 | 1010.9 |
| 20260503183524 | 74 | 259 | 1.0 | 6.0 | 0.00 | 0.00 | 0.00 | 56 | 1010.9 |
| 20260503183052 | 74 | 29 | 3.0 | 7.0 | 0.00 | 0.00 | 0.00 | 56 | 1011.0 |
| 20260503182526 | 74 | 263 | 2.0 | 7.0 | 0.00 | 0.00 | 0.00 | 58 | 1011.1 |
| 20260503182027 | 73 | 323 | 3.0 | 6.0 | 0.00 | 0.00 | 0.00 | 59 | 1011.1 |
| 20260503181557 | 73 | 63 | 4.0 | 6.0 | 0.00 | 0.00 | 0.00 | 58 | 1011.2 |
| 20260503181025 | 73 | 59 | 2.0 | 6.0 | 0.00 | 0.00 | 0.00 | 60 | 1011.2 |
| 20260503180528 | 72 | 305 | 2.0 | 6.0 | 0.00 | 0.00 | 0.00 | 62 | 1011.3 |
| 20260503180048 | 71 | 58 | 3.0 | 7.0 | 0.00 | 0.00 | 0.00 | 61 | 1011.3 |
| 20260503175526 | 71 | 345 | 4.0 | 7.0 | 0.00 | 0.00 | 0.00 | 61 | 1011.4 |
| 20260503175027 | 70 | 82 | 1.0 | 7.0 | 0.00 | 0.00 | 0.00 | 65 | 1011.4 |
| 20260503174537 | 70 | 291 | 4.0 | 8.0 | 0.00 | 0.00 | 0.00 | 65 | 1011.5 |
| 20260503174027 | 69 | 316 | 4.0 | 8.0 | 0.00 | 0.00 | 0.00 | 66 | 1011.5 |
| 20260503173524 | 69 | 319 | 3.0 | 6.0 | 0.00 | 0.00 | 0.00 | 68 | 1011.5 |
| 20260503173036 | 68 | 322 | 3.0 | 6.0 | 0.00 | 0.00 | 0.00 | 68 | 1011.6 |
| 20260503172526 | 68 | 23 | 3.0 | 5.0 | 0.00 | 0.00 | 0.00 | 68 | 1011.7 |
| 20260503172023 | 68 | 32 | 3.0 | 6.0 | 0.00 | 0.00 | 0.00 | 69 | 1011.7 |
| 20260503171541 | 67 | 30 | 3.0 | 7.0 | 0.00 | 0.00 | 0.00 | 69 | 1011.7 |
| 20260503171026 | 67 | 326 | 2.0 | 7.0 | 0.00 | 0.00 | 0.00 | 70 | 1011.6 |
| 20260503170527 | 67 | 319 | 3.0 | 7.0 | 0.00 | 0.00 | 0.00 | 71 | 1011.8 |
| 20260503150526 | 61 | 0 | 0.0 | 0.0 | 0.00 | 0.00 | 0.00 | 83 | 1012.2 |
| 20260503131025 | 53 | 0 | 0.0 | 0.0 | 0.00 | 0.00 | 0.00 | 96 | 1011.8 |
| 20260503130527 | 53 | 0 | 0.0 | 0.0 | 0.00 | 0.00 | 0.00 | 96 | 1011.7 |
| 20260503110526 | 54 | 0 | 0.0 | 0.0 | 0.00 | 0.00 | 0.00 | 95 | 1012.1 |
| 20260503081546 | 56 | 0 | 0.0 | 0.0 | 0.00 | 0.04 | 0.00 | 90 | 1012.3 |
| 20260503081024 | 56 | 0 | 0.0 | 0.0 | 0.00 | 0.04 | 0.00 | 90 | 1012.3 |
| 20260503080524 | 57 | 0 | 0.0 | 0.0 | 0.00 | 0.04 | 0.00 | 90 | 1012.1 |
| 20260503072524 | 58 | 0 | 0.0 | 0.0 | 0.00 | 0.04 | 0.00 | 87 | 1012.2 |
| 20260503072027 | 58 | 0 | 0.0 | 1.0 | 0.00 | 0.04 | 0.00 | 87 | 1012.2 |
| 20260503071541 | 59 | 0 | 0.0 | 1.0 | 0.00 | 0.04 | 0.00 | 87 | 1012.3 |
| 20260503071024 | 59 | 0 | 0.0 | 1.0 | 0.00 | 0.04 | 0.00 | 87 | 1012.2 |
| 20260503070528 | 59 | 0 | 0.0 | 0.0 | 0.00 | 0.04 | 0.00 | 86 | 1012.2 |
| 20260503055024 | 61 | 205 | 1.0 | 2.0 | 0.00 | 0.04 | 0.04 | 82 | 1012.3 |
| 20260503054541 | 61 | 0 | 0.0 | 0.0 | 0.00 | 0.04 | 0.04 | 82 | 1012.1 |
| 20260503054024 | 62 | 0 | 0.0 | 0.0 | 0.00 | 0.04 | 0.04 | 81 | 1012.0 |
| 20260503053524 | 62 | 0 | 0.0 | 0.0 | 0.00 | 0.04 | 0.04 | 81 | 1011.9 |
| 20260503053036 | 62 | 0 | 0.0 | 0.0 | 0.00 | 0.04 | 0.04 | 80 | 1011.9 |
| 20260503052524 | 62 | 0 | 0.0 | 1.0 | 0.00 | 0.04 | 0.04 | 80 | 1012.0 |
| 20260503052024 | 62 | 0 | 0.0 | 2.0 | 0.00 | 0.04 | 0.04 | 80 | 1011.9 |
| 20260503051544 | 62 | 312 | 1.0 | 2.0 | 0.00 | 0.04 | 0.04 | 79 | 1012.1 |
| 20260503051024 | 63 | 334 | 1.0 | 2.0 | 0.00 | 0.04 | 0.04 | 79 | 1012.0 |
| 20260503050524 | 63 | 0 | 0.0 | 0.0 | 0.00 | 0.04 | 0.04 | 79 | 1012.1 |
| 20260503050043 | 62 | 0 | 0.0 | 0.0 | 0.00 | 0.04 | 0.04 | 79 | 1012.2 |
| 20260503045526 | 63 | 0 | 0.0 | 0.0 | 0.00 | 0.04 | 0.04 | 79 | 1012.3 |
| 20260503045025 | 63 | 0 | 0.0 | 1.0 | 0.00 | 0.04 | 0.04 | 78 | 1012.4 |
| 20260503044558 | 63 | 0 | 0.0 | 1.0 | 0.00 | 0.04 | 0.04 | 78 | 1012.3 |
| 20260503044024 | 63 | 0 | 0.0 | 1.0 | 0.00 | 0.04 | 0.04 | 78 | 1012.2 |
| 20260503043524 | 63 | 0 | 0.0 | 0.0 | 0.00 | 0.04 | 0.04 | 78 | 1012.4 |
| 20260503043041 | 63 | 0 | 0.0 | 1.0 | 0.00 | 0.04 | 0.04 | 78 | 1012.5 |
| 20260503042524 | 63 | 0 | 0.0 | 1.0 | 0.00 | 0.04 | 0.04 | 77 | 1012.4 |
| 20260503042024 | 63 | 107 | 0.0 | 1.0 | 0.00 | 0.04 | 0.04 | 77 | 1012.3 |
| 20260503041537 | 63 | 0 | 0.0 | 1.0 | 0.00 | 0.04 | 0.04 | 77 | 1012.3 |
| 20260503041024 | 63 | 0 | 0.0 | 1.0 | 0.00 | 0.04 | 0.04 | 77 | 1012.2 |
| 20260503040523 | 64 | 0 | 0.0 | 0.0 | 0.00 | 0.04 | 0.04 | 76 | 1012.2 |
| 20260503040051 | 64 | 0 | 0.0 | 0.0 | 0.00 | 0.04 | 0.04 | 76 | 1012.3 |
| 20260503035525 | 64 | 0 | 0.0 | 0.0 | 0.00 | 0.04 | 0.04 | 76 | 1012.3 |
| 20260503035025 | 64 | 0 | 0.0 | 0.0 | 0.00 | 0.04 | 0.04 | 75 | 1012.3 |
| 20260503034542 | 64 | 0 | 0.0 | 0.0 | 0.00 | 0.04 | 0.04 | 75 | 1012.2 |
| 20260503034025 | 64 | 0 | 0.0 | 0.0 | 0.00 | 0.04 | 0.04 | 75 | 1012.3 |
| 20260503033524 | 64 | 0 | 0.0 | 0.0 | 0.00 | 0.04 | 0.04 | 75 | 1012.2 |
| 20260503033043 | 64 | 0 | 0.0 | 0.0 | 0.00 | 0.04 | 0.04 | 74 | 1012.1 |
| 20260503032525 | 65 | 0 | 0.0 | 0.0 | 0.00 | 0.04 | 0.04 | 74 | 1012.1 |
| 20260503032025 | 65 | 0 | 0.0 | 3.0 | 0.00 | 0.04 | 0.04 | 73 | 1012.2 |
| 20260503031540 | 65 | 0 | 0.0 | 3.0 | 0.00 | 0.04 | 0.04 | 73 | 1012.1 |
| 20260503031024 | 65 | 0 | 1.0 | 7.0 | 0.00 | 0.04 | 0.04 | 73 | 1012.0 |
| 20260503030528 | 65 | 198 | 2.0 | 7.0 | 0.00 | 0.04 | 0.04 | 73 | 1012.0 |
| 20260503030038 | 65 | 192 | 4.0 | 7.0 | 0.00 | 0.04 | 0.04 | 72 | 1011.9 |
| 20260503025524 | 65 | 193 | 3.0 | 11.0 | 0.00 | 0.04 | 0.04 | 72 | 1011.8 |
| 20260503025024 | 65 | 193 | 5.0 | 11.0 | 0.00 | 0.04 | 0.04 | 72 | 1011.9 |
| 20260503024543 | 65 | 205 | 6.0 | 14.0 | 0.00 | 0.04 | 0.04 | 72 | 1012.0 |
| 20260503024024 | 66 | 219 | 8.0 | 14.0 | 0.00 | 0.04 | 0.04 | 71 | 1011.9 |
| 20260503023525 | 67 | 197 | 4.0 | 14.0 | 0.00 | 0.04 | 0.04 | 70 | 1012.0 |
| 20260503023047 | 67 | 192 | 5.0 | 14.0 | 0.00 | 0.04 | 0.04 | 69 | 1011.8 |
| 20260503022524 | 68 | 219 | 8.0 | 14.0 | 0.00 | 0.04 | 0.04 | 67 | 1011.8 |
| 20260503022024 | 70 | 192 | 4.0 | 14.0 | 0.00 | 0.04 | 0.04 | 65 | 1011.7 |
| 20260503021549 | 71 | 190 | 7.0 | 14.0 | 0.00 | 0.04 | 0.04 | 63 | 1011.8 |
| 20260503021024 | 71 | 195 | 3.0 | 10.0 | 0.00 | 0.04 | 0.04 | 62 | 1011.8 |
| 20260503020524 | 72 | 194 | 0.0 | 2.0 | 0.00 | 0.04 | 0.04 | 61 | 1011.5 |
| 20260503020044 | 72 | 203 | 0.0 | 2.0 | 0.00 | 0.04 | 0.04 | 61 | 1011.2 |
| 20260503015528 | 72 | 0 | 0.0 | 1.0 | 0.00 | 0.04 | 0.04 | 61 | 1011.1 |
| 20260503015025 | 73 | 0 | 0.0 | 2.0 | 0.00 | 0.04 | 0.04 | 61 | 1011.0 |
| 20260503014547 | 73 | 193 | 0.0 | 2.0 | 0.00 | 0.04 | 0.04 | 60 | 1011.0 |
| 20260503014024 | 73 | 205 | 0.0 | 0.0 | 0.00 | 0.04 | 0.04 | 60 | 1011.0 |
| 20260503013524 | 73 | 0 | 0.0 | 0.0 | 0.00 | 0.04 | 0.04 | 60 | 1010.9 |
| 20260503013046 | 73 | 0 | 0.0 | 0.0 | 0.00 | 0.04 | 0.04 | 60 | 1011.0 |
| 20260503012524 | 72 | 0 | 0.0 | 2.0 | 0.00 | 0.04 | 0.04 | 61 | 1011.1 |
| 20260503012024 | 72 | 0 | 0.0 | 2.0 | 0.00 | 0.04 | 0.04 | 60 | 1011.0 |
| 20260503011542 | 72 | 0 | 0.0 | 2.0 | 0.00 | 0.04 | 0.04 | 59 | 1011.0 |
| 20260503011024 | 73 | 229 | 0.0 | 1.0 | 0.00 | 0.04 | 0.04 | 59 | 1010.9 |
| 20260503010525 | 73 | 0 | 0.0 | 3.0 | 0.00 | 0.04 | 0.04 | 58 | 1010.9 |
| 20260503010045 | 73 | 191 | 1.0 | 3.0 | 0.00 | 0.04 | 0.04 | 58 | 1011.0 |
| 20260503005525 | 73 | 0 | 0.0 | 1.0 | 0.00 | 0.04 | 0.04 | 59 | 1011.0 |
| 20260503005025 | 73 | 193 | 0.0 | 3.0 | 0.00 | 0.04 | 0.04 | 58 | 1011.1 |
| 20260503004540 | 73 | 0 | 0.0 | 3.0 | 0.00 | 0.04 | 0.04 | 59 | 1011.0 |
| 20260503004027 | 73 | 246 | 0.0 | 3.0 | 0.00 | 0.04 | 0.04 | 58 | 1011.0 |
| 20260503003524 | 72 | 0 | 0.0 | 6.0 | 0.00 | 0.04 | 0.04 | 59 | 1011.0 |
| 20260503003039 | 72 | 302 | 1.0 | 6.0 | 0.00 | 0.04 | 0.04 | 59 | 1011.0 |
| 20260503002527 | 72 | 321 | 2.0 | 5.0 | 0.00 | 0.04 | 0.04 | 59 | 1011.0 |
| 20260503002027 | 72 | 205 | 1.0 | 6.0 | 0.00 | 0.04 | 0.04 | 59 | 1011.0 |
| 20260503001545 | 72 | 107 | 2.0 | 6.0 | 0.00 | 0.04 | 0.04 | 60 | 1011.1 |
| 20260503001024 | 72 | 273 | 2.0 | 5.0 | 0.00 | 0.04 | 0.04 | 59 | 1011.1 |
| 20260503000524 | 72 | 345 | 2.0 | 4.0 | 0.00 | 0.04 | 0.04 | 58 | 1011.2 |
| 20260503000041 | 73 | 246 | 2.0 | 6.0 | 0.00 | 0.04 | 0.04 | 58 | 1011.1 |
| 20260502235524 | 72 | 0 | 0.0 | 6.0 | 0.00 | 0.04 | 0.04 | 60 | 1011.2 |
| 20260502235024 | 71 | 335 | 4.0 | 6.0 | 0.00 | 0.04 | 0.04 | 60 | 1011.2 |
| 20260502234550 | 71 | 311 | 3.0 | 6.0 | 0.00 | 0.04 | 0.04 | 59 | 1011.3 |
| 20260502234024 | 71 | 0 | 0.0 | 9.0 | 0.00 | 0.04 | 0.04 | 59 | 1011.3 |
| 20260502233528 | 71 | 309 | 3.0 | 9.0 | 0.00 | 0.04 | 0.04 | 61 | 1011.4 |
| 20260502233040 | 71 | 262 | 2.0 | 5.0 | 0.00 | 0.04 | 0.04 | 61 | 1011.5 |
| 20260502232524 | 70 | 281 | 2.0 | 6.0 | 0.00 | 0.04 | 0.04 | 61 | 1011.5 |
| 20260502232024 | 70 | 0 | 1.0 | 6.0 | 0.00 | 0.04 | 0.04 | 62 | 1011.6 |
| 20260502231545 | 69 | 269 | 1.0 | 11.0 | 0.00 | 0.04 | 0.04 | 62 | 1011.7 |
| 20260502231028 | 69 | 186 | 2.0 | 11.0 | 0.00 | 0.04 | 0.04 | 64 | 1011.8 |
| 20260502230525 | 69 | 59 | 5.0 | 10.0 | 0.00 | 0.04 | 0.04 | 63 | 1011.8 |
| 20260502230044 | 69 | 278 | 1.0 | 9.0 | 0.00 | 0.04 | 0.04 | 63 | 1011.9 |
| 20260502225527 | 69 | 255 | 3.0 | 9.0 | 0.00 | 0.04 | 0.04 | 63 | 1012.0 |
| 20260502225026 | 69 | 27 | 1.0 | 9.0 | 0.00 | 0.04 | 0.04 | 63 | 1012.1 |
| 20260502224541 | 68 | 336 | 1.0 | 9.0 | 0.00 | 0.04 | 0.04 | 63 | 1012.1 |
| 20260502224024 | 68 | 296 | 4.0 | 9.0 | 0.00 | 0.04 | 0.04 | 64 | 1012.2 |
| 20260502223526 | 68 | 77 | 3.0 | 9.0 | 0.00 | 0.04 | 0.04 | 64 | 1012.3 |
| 20260502223040 | 68 | 251 | 2.0 | 7.0 | 0.00 | 0.04 | 0.04 | 64 | 1012.4 |
| 20260502222524 | 68 | 325 | 3.0 | 7.0 | 0.00 | 0.04 | 0.04 | 65 | 1012.4 |
| 20260502222028 | 67 | 20 | 3.0 | 7.0 | 0.00 | 0.04 | 0.04 | 65 | 1012.6 |
| 20260502221547 | 67 | 57 | 3.0 | 7.0 | 0.00 | 0.04 | 0.04 | 66 | 1012.7 |
| 20260502221025 | 67 | 34 | 2.0 | 6.0 | 0.00 | 0.04 | 0.04 | 65 | 1012.8 |
| 20260502220524 | 67 | 0 | 2.0 | 7.0 | 0.00 | 0.04 | 0.04 | 65 | 1012.9 |
| 20260502220104 | 66 | 0 | 2.0 | 8.0 | 0.00 | 0.04 | 0.04 | 67 | 1012.9 |
| 20260502215524 | 66 | 333 | 2.0 | 8.0 | 0.00 | 0.04 | 0.04 | 66 | 1013.0 |
| 20260502215024 | 67 | 333 | 3.0 | 8.0 | 0.00 | 0.04 | 0.04 | 65 | 1013.1 |
| 20260502214541 | 66 | 276 | 0.0 | 7.0 | 0.00 | 0.04 | 0.04 | 68 | 1013.1 |
| 20260502214025 | 64 | 336 | 1.0 | 7.0 | 0.00 | 0.04 | 0.04 | 68 | 1013.2 |
| 20260502213524 | 64 | 262 | 5.0 | 7.0 | 0.00 | 0.04 | 0.04 | 68 | 1013.3 |
| 20260502213043 | 64 | 0 | 4.0 | 7.0 | 0.00 | 0.04 | 0.04 | 69 | 1013.3 |
| 20260502212526 | 64 | 250 | 4.0 | 7.0 | 0.00 | 0.04 | 0.04 | 69 | 1013.5 |
| 20260502212024 | 64 | 309 | 3.0 | 10.0 | 0.00 | 0.04 | 0.04 | 68 | 1013.5 |
| 20260502211544 | 64 | 28 | 4.0 | 10.0 | 0.00 | 0.04 | 0.04 | 69 | 1013.6 |
| 20260502211024 | 64 | 6 | 5.0 | 10.0 | 0.00 | 0.04 | 0.04 | 68 | 1013.6 |
| 20260502210524 | 64 | 243 | 4.0 | 9.0 | 0.00 | 0.04 | 0.04 | 68 | 1013.6 |
| 20260502210049 | 64 | 330 | 2.0 | 9.0 | 0.00 | 0.04 | 0.04 | 71 | 1013.6 |
| 20260502205524 | 64 | 317 | 3.0 | 9.0 | 0.00 | 0.04 | 0.04 | 69 | 1013.8 |
| 20260502205025 | 64 | 63 | 2.0 | 7.0 | 0.00 | 0.04 | 0.04 | 71 | 1014.0 |
| 20260502204542 | 63 | 326 | 4.0 | 7.0 | 0.00 | 0.04 | 0.04 | 69 | 1014.2 |
| 20260502204024 | 62 | 0 | 0.0 | 6.0 | 0.00 | 0.04 | 0.04 | 71 | 1014.0 |
| 20260502203525 | 62 | 310 | 3.0 | 7.0 | 0.00 | 0.04 | 0.04 | 71 | 1014.0 |
| 20260502203057 | 62 | 71 | 3.0 | 7.0 | 0.00 | 0.04 | 0.04 | 70 | 1014.1 |
| 20260502202524 | 62 | 65 | 2.0 | 8.0 | 0.00 | 0.04 | 0.04 | 71 | 1014.1 |
| 20260502202024 | 62 | 285 | 3.0 | 8.0 | 0.00 | 0.04 | 0.04 | 72 | 1014.2 |
| 20260502201544 | 62 | 212 | 3.0 | 7.0 | 0.00 | 0.04 | 0.04 | 70 | 1014.3 |
| 20260502201025 | 62 | 343 | 4.0 | 7.0 | 0.00 | 0.04 | 0.04 | 70 | 1014.5 |
| 20260502200524 | 62 | 204 | 2.0 | 7.0 | 0.00 | 0.04 | 0.04 | 70 | 1014.5 |
| 20260502200045 | 61 | 81 | 1.0 | 8.0 | 0.00 | 0.04 | 0.04 | 73 | 1014.5 |
| 20260502195527 | 61 | 279 | 3.0 | 8.0 | 0.00 | 0.04 | 0.04 | 72 | 1014.5 |
| 20260502195024 | 61 | 324 | 2.0 | 8.0 | 0.00 | 0.04 | 0.04 | 73 | 1014.5 |
| 20260502194548 | 61 | 349 | 3.0 | 8.0 | 0.00 | 0.04 | 0.04 | 74 | 1014.7 |
| 20260502194024 | 60 | 325 | 4.0 | 8.0 | 0.00 | 0.04 | 0.04 | 74 | 1014.8 |
| 20260502193527 | 60 | 328 | 4.0 | 8.0 | 0.00 | 0.04 | 0.04 | 74 | 1014.7 |
| 20260502193042 | 60 | 335 | 3.0 | 9.0 | 0.00 | 0.04 | 0.04 | 74 | 1014.9 |
| 20260502192524 | 60 | 49 | 4.0 | 9.0 | 0.00 | 0.04 | 0.04 | 74 | 1014.9 |
| 20260502192024 | 60 | 326 | 2.0 | 9.0 | 0.00 | 0.04 | 0.04 | 76 | 1015.0 |
| 20260502191543 | 59 | 263 | 2.0 | 9.0 | 0.00 | 0.04 | 0.04 | 76 | 1015.0 |
| 20260502191024 | 59 | 331 | 3.0 | 8.0 | 0.00 | 0.04 | 0.04 | 76 | 1015.2 |